Florijngracht — PBSU — position and weather

sailwx.info

Track history (hours):
 
Tides and Currents Weather Stations Pressure Air Temp Water Temp Dewpoint Dewpoint Depression Visibility Wind Speed Wind Dir Waves Ship Positions

Florijngracht

Last reported at 2018-Jul-15 15:16 UTC. Time now 2018-Jul-16 14:41 UTC.
Position N 55°39' E 021°10'.

Length 137 m; draft 5.7 m.

Type: Cargo ship. MMSI: 246592000.

Date/timePositionNaut miles runAvg speedWind from/ knotsBaromVisibWave heightAir tempDewpointWater temp
2018-Jul-15 15:16N 55°39' E 021°10'0 0.0
2018-Jul-14 13:25N 55°39' E 021°10'80 2.9
2018-Jul-13 09:34N 55°15' E 018°55'113.3
2018-Jul-13 09:29N 55°15' E 018°53'713.4
2018-Jul-13 08:59N 55°12' E 018°42'613.5
2018-Jul-13 08:30N 55°10' E 018°31'713.5
2018-Jul-13 07:59N 55°07' E 018°20'613.5
2018-Jul-13 07:30N 55°04' E 018°10'713.4
2018-Jul-13 07:00N 55°02' E 017°59'8013.5
2018-Jul-13 01:05N 54°43' E 015°44'113.7
2018-Jul-13 00:59N 54°42' E 015°42'1713.6
2018-Jul-12 23:43N 54°40' E 015°12'1413.7
2018-Jul-12 22:42N 54°38' E 014°49'313.7
2018-Jul-12 22:29N 54°37' E 014°44'713.6
2018-Jul-12 21:59N 54°36' E 014°32'713.3
2018-Jul-12 21:25N 54°36' E 014°19'613.7
2018-Jul-12 20:58N 54°38' E 014°09'713.6
2018-Jul-12 20:26N 54°40' E 013°57'5415.8
2018-Jul-12 17:03N 54°38' E 012°24'110.3
2018-Jul-12 16:58N 54°37' E 012°23'15 6.9
2018-Jul-12 14:46N 54°25' E 012°08'413.4
2018-Jul-12 14:30N 54°25' E 012°02'813.0
2018-Jul-12 13:54N 54°25' E 011°49'512.8
2018-Jul-12 13:30N 54°27' E 011°40'713.2
2018-Jul-12 13:00N 54°29' E 011°30'713.2
2018-Jul-12 12:30N 54°32' E 011°20'713.5
2018-Jul-12 12:00N 54°35' E 011°10'713.0
2018-Jul-12 11:30N 54°39' E 011°00'612.0
2018-Jul-12 11:00N 54°43' E 010°52'612.5
2018-Jul-12 10:30N 54°49' E 010°52'611.8
2018-Jul-12 10:00N 54°55' E 010°53'611.9
2018-Jul-12 09:30N 54°59' E 011°00'612.7
2018-Jul-12 09:00N 55°05' E 011°02'612.5
2018-Jul-12 08:30N 55°11' E 011°05'5 9.0
2018-Jul-12 08:00N 55°16' E 011°04'611.3
2018-Jul-12 07:30N 55°21' E 011°02'4 8.0
2018-Jul-12 07:00N 55°25' E 010°58'713.4
2018-Jul-12 06:30N 55°31' E 010°52'612.6
2018-Jul-12 06:00N 55°36' E 010°48'612.7
2018-Jul-12 05:31N 55°43' E 010°47'612.8
2018-Jul-12 05:00N 55°49' E 010°48'712.9
2018-Jul-12 04:30N 55°54' E 010°55'913.1
2018-Jul-12 03:51N 56°01' E 011°04'412.9
2018-Jul-12 03:30N 56°05' E 011°07'612.4
2018-Jul-12 03:00N 56°10' E 011°15'913.3
2018-Jul-12 02:18N 56°18' E 011°23'413.4
2018-Jul-12 02:00N 56°22' E 011°26'612.7
2018-Jul-12 01:30N 56°27' E 011°31'713.0
2018-Jul-12 01:00N 56°33' E 011°38'613.2
2018-Jul-12 00:31N 56°38' E 011°44'713.2
2018-Jul-12 00:00N 56°44' E 011°50'612.2
2018-Jul-11 23:30N 56°50' E 011°49'612.7
2018-Jul-11 23:00N 56°56' E 011°45'612.7
2018-Jul-11 22:30N 57°02' E 011°41'612.7
2018-Jul-11 22:01N 57°07' E 011°36'612.7
2018-Jul-11 21:30N 57°13' E 011°32'713.0
2018-Jul-11 21:00N 57°20' E 011°28'713.3
2018-Jul-11 20:30N 57°26' E 011°24'612.7
2018-Jul-11 20:00N 57°31' E 011°18'612.7
2018-Jul-11 19:30N 57°35' E 011°09'612.9
2018-Jul-11 19:00N 57°40' E 010°60'612.8
2018-Jul-11 18:30N 57°44' E 010°51'612.1
2018-Jul-11 18:01N 57°47' E 010°41'713.5
2018-Jul-11 17:30N 57°47' E 010°28'713.5
2018-Jul-11 17:00N 57°46' E 010°16'713.7
2018-Jul-11 16:31N 57°45' E 010°03'713.9
2018-Jul-11 16:00N 57°45' E 009°50'713.7
2018-Jul-11 15:31N 57°44' E 009°37'713.0
2018-Jul-11 15:00N 57°42' E 009°25'28912.8
2018-Jul-10 16:29N 53°37' E 004°51'1212.8
2018-Jul-10 15:35N 53°27' E 004°45'1312.9
2018-Jul-10 14:33N 53°14' E 004°36'112.9
2018-Jul-10 14:28N 53°13' E 004°35'612.9
2018-Jul-10 14:00N 53°08' E 004°30'612.0
2018-Jul-10 13:30N 53°03' E 004°25'611.6
2018-Jul-10 13:00N 52°58' E 004°20'611.8
2018-Jul-10 12:30N 52°53' E 004°17'1111.4
2018-Jul-10 11:31N 52°43' E 004°06'010.4
2018-Jul-10 11:29N 52°43' E 004°06'611.2
2018-Jul-10 10:55N 52°37' E 004°01'511.4
2018-Jul-10 10:30N 52°33' E 003°57'611.2
2018-Jul-10 10:00N 52°28' E 003°55'510.8
2018-Jul-10 09:30N 52°23' E 003°53'510.7
2018-Jul-10 09:01N 52°17' E 003°52'611.1
2018-Jul-10 08:30N 52°12' E 003°54'611.2
2018-Jul-10 08:00N 52°06' E 003°55'4 7.8
2018-Jul-10 07:31N 52°02' E 003°54'612.4
2018-Jul-10 07:00N 51°59' E 004°03'713.9
2018-Jul-10 06:30N 51°56' E 004°13'510.9
2018-Jul-10 06:00N 51°54' E 004°21'3 6.5
2018-Jul-10 05:30N 51°54' E 004°27'1 1.0
2018-Jul-10 05:00N 51°54' E 004°27'0 0.0
2018-Jul-10 04:30N 51°54' E 004°27'0 0.0
2018-Jul-10 04:00N 51°54' E 004°27'0 0.0
2018-Jul-10 03:30N 51°54' E 004°27'0 0.0
2018-Jul-10 03:00N 51°54' E 004°27'0 0.0
2018-Jul-10 02:30N 51°54' E 004°27'0 0.0
2018-Jul-10 02:00N 51°54' E 004°27'0 0.0
2018-Jul-10 01:30N 51°54' E 004°27'0 0.0
2018-Jul-10 01:00N 51°54' E 004°27'0 0.0
2018-Jul-10 00:30N 51°54' E 004°27'0 0.0
2018-Jul-10 00:00N 51°54' E 004°27'0 0.0
2018-Jul-09 23:30N 51°54' E 004°27'0 0.0
2018-Jul-09 23:00N 51°54' E 004°27'0 0.0
2018-Jul-09 22:30N 51°54' E 004°27'0 0.0
2018-Jul-09 22:00N 51°54' E 004°27'0 0.0
2018-Jul-09 21:30N 51°54' E 004°27'0 0.0
2018-Jul-09 21:00N 51°54' E 004°27'0 0.0
2018-Jul-09 20:30N 51°54' E 004°27'0 0.0
2018-Jul-09 20:00N 51°54' E 004°27'0 0.0
2018-Jul-09 19:30N 51°54' E 004°27'0 0.0
2018-Jul-09 19:00N 51°54' E 004°27'0 0.0
2018-Jul-09 18:30N 51°54' E 004°27'0 0.0
2018-Jul-09 18:00N 51°54' E 004°27'0 0.0
2018-Jul-09 17:30N 51°54' E 004°27'0 0.0
2018-Jul-09 17:00N 51°54' E 004°27'0 0.0
2018-Jul-09 16:30N 51°54' E 004°27'0 0.0
2018-Jul-09 16:00N 51°54' E 004°27'0 0.0
2018-Jul-09 15:30N 51°54' E 004°27'0 0.0
2018-Jul-09 15:00N 51°54' E 004°27'0 0.0
2018-Jul-09 14:30N 51°54' E 004°27'0 0.0
2018-Jul-09 14:00N 51°54' E 004°27'0 0.0
2018-Jul-09 13:30N 51°54' E 004°27'0 0.0
2018-Jul-09 13:00N 51°54' E 004°27'0 0.0
2018-Jul-09 12:30N 51°54' E 004°27'0 0.0
2018-Jul-09 12:00N 51°54' E 004°27'0 0.0
2018-Jul-09 11:30N 51°54' E 004°27'0 0.0
2018-Jul-09 11:00N 51°54' E 004°27'0 0.0
2018-Jul-09 10:30N 51°54' E 004°27'0 0.0
2018-Jul-09 10:00N 51°54' E 004°27'0 0.0
2018-Jul-09 09:30N 51°54' E 004°27'0 0.0
2018-Jul-09 09:00N 51°54' E 004°27'0 0.0
2018-Jul-09 08:30N 51°54' E 004°27'0 0.0
2018-Jul-09 08:00N 51°54' E 004°27'0 0.0
2018-Jul-09 07:30N 51°54' E 004°27'0 0.0
2018-Jul-09 07:00N 51°54' E 004°27'0 0.0
2018-Jul-09 06:30N 51°54' E 004°27'0 0.0
2018-Jul-09 06:00N 51°54' E 004°27'0 0.0
2018-Jul-09 05:30N 51°54' E 004°27'0 0.0
2018-Jul-09 05:00N 51°54' E 004°27'0 0.0
2018-Jul-09 04:30N 51°54' E 004°27'0 0.0
2018-Jul-09 04:00N 51°54' E 004°27'0 0.0
2018-Jul-09 03:30N 51°54' E 004°27'0 0.0
2018-Jul-09 03:00N 51°54' E 004°27'0 0.0
2018-Jul-09 02:30N 51°54' E 004°27'0 0.0
2018-Jul-09 02:00N 51°54' E 004°27'0 0.0
2018-Jul-09 01:30N 51°54' E 004°27'0 0.0
2018-Jul-09 01:00N 51°54' E 004°27'0 0.0
2018-Jul-09 00:30N 51°54' E 004°27'0 0.0
2018-Jul-09 00:00N 51°54' E 004°27'0 0.0
2018-Jul-08 23:30N 51°54' E 004°27'0 0.0
2018-Jul-08 23:00N 51°54' E 004°27'0 0.0
2018-Jul-08 22:30N 51°54' E 004°27'0 0.0
2018-Jul-08 22:00N 51°54' E 004°27'0 0.0
2018-Jul-08 21:30N 51°54' E 004°27'0 0.0
2018-Jul-08 21:00N 51°54' E 004°27'0 0.0
2018-Jul-08 20:30N 51°54' E 004°27'0 0.0
2018-Jul-08 20:00N 51°54' E 004°27'0 0.0
2018-Jul-08 19:30N 51°54' E 004°27'0 0.3
2018-Jul-08 19:00N 51°54' E 004°27'1 2.1
2018-Jul-08 18:30N 51°54' E 004°26'4 7.5
2018-Jul-08 18:01N 51°54' E 004°20'511.0
2018-Jul-08 17:31N 51°56' E 004°12'612.0
2018-Jul-08 17:01N 51°59' E 004°03'612.0
2018-Jul-08 16:30N 51°60' E 003°54'510.8
2018-Jul-08 16:00N 51°60' E 003°45'612.1
2018-Jul-08 15:30N 51°57' E 003°36'612.3
2018-Jul-08 15:01N 51°56' E 003°26'612.0
2018-Jul-08 14:30N 51°51' E 003°20'612.6
2018-Jul-08 14:00N 51°45' E 003°16'510.4
2018-Jul-08 13:30N 51°40' E 003°19'713.7
2018-Jul-08 13:00N 51°34' E 003°24'713.8
2018-Jul-08 12:30N 51°29' E 003°30'510.9
2018-Jul-08 12:00N 51°26' E 003°38'3 6.2
2018-Jul-08 11:30N 51°27' E 003°43'0 0.0
2018-Jul-08 11:00N 51°27' E 003°43'0 0.0
2018-Jul-08 10:30N 51°27' E 003°43'0 0.0
2018-Jul-08 10:00N 51°27' E 003°43'0 0.0
2018-Jul-08 09:30N 51°27' E 003°43'0 0.0
2018-Jul-08 09:00N 51°27' E 003°43'0 0.0
2018-Jul-08 08:27N 51°27' E 003°43'0 0.0
2018-Jul-08 08:00N 51°27' E 003°43'0 0.0
2018-Jul-08 07:30N 51°27' E 003°43'0 0.0
2018-Jul-08 07:00N 51°27' E 003°43'0 0.0
2018-Jul-08 06:30N 51°27' E 003°43'0 0.0
2018-Jul-08 06:00N 51°27' E 003°43'0 0.0
2018-Jul-08 05:29N 51°27' E 003°43'0 0.0
2018-Jul-08 05:00N 51°27' E 003°43'0 0.0
2018-Jul-08 04:23N 51°27' E 003°43'0 0.0
2018-Jul-08 03:59N 51°27' E 003°43'0 0.0
2018-Jul-08 03:29N 51°27' E 003°43'0 0.0
2018-Jul-08 02:59N 51°27' E 003°43'0 0.0
2018-Jul-08 02:29N 51°27' E 003°43'0 0.0
2018-Jul-08 02:00N 51°27' E 003°43'0 0.0
2018-Jul-08 01:30N 51°27' E 003°43'0 0.0
2018-Jul-08 00:59N 51°27' E 003°43'0 0.0
2018-Jul-08 00:29N 51°27' E 003°43'0 0.0
2018-Jul-07 23:59N 51°27' E 003°43'0 0.0
2018-Jul-07 23:26N 51°27' E 003°43'0 0.0
2018-Jul-07 22:59N 51°27' E 003°43'0 0.0
2018-Jul-07 22:29N 51°27' E 003°43'0 0.0
2018-Jul-07 21:51N 51°27' E 003°43'0 0.0
2018-Jul-07 21:29N 51°27' E 003°43'0 0.0
2018-Jul-07 20:59N 51°27' E 003°43'0 0.0
2018-Jul-07 20:27N 51°27' E 003°43'0 0.0
2018-Jul-07 19:59N 51°27' E 003°43'0 0.0
2018-Jul-07 19:23N 51°27' E 003°43'0 0.0
2018-Jul-07 18:59N 51°27' E 003°43'0 0.0
2018-Jul-07 18:29N 51°27' E 003°43'0 0.0
2018-Jul-07 17:59N 51°27' E 003°43'0 0.0
2018-Jul-07 17:29N 51°27' E 003°43'0 0.0
2018-Jul-07 16:59N 51°27' E 003°43'0 0.0
2018-Jul-07 16:29N 51°27' E 003°43'0 0.0
2018-Jul-07 15:59N 51°27' E 003°43'0 0.0
2018-Jul-07 15:29N 51°27' E 003°43'0 0.0
2018-Jul-07 14:59N 51°27' E 003°43'0 0.0
2018-Jul-07 14:29N 51°27' E 003°43'0 0.0
2018-Jul-07 13:59N 51°27' E 003°43'0 0.0
2018-Jul-07 13:29N 51°27' E 003°43'0 0.0
2018-Jul-07 12:59N 51°27' E 003°43'0 0.0
2018-Jul-07 12:29N 51°27' E 003°43'0 0.0
2018-Jul-07 11:56N 51°27' E 003°43'0 0.0
2018-Jul-07 11:29N 51°27' E 003°43'0 0.0
2018-Jul-07 10:59N 51°27' E 003°43'0 0.0
2018-Jul-07 10:29N 51°27' E 003°43'0 0.0
2018-Jul-07 09:59N 51°27' E 003°43'0 0.0
2018-Jul-07 09:29N 51°27' E 003°43'0 0.0
2018-Jul-07 08:59N 51°27' E 003°43'0 0.0
2018-Jul-07 08:29N 51°27' E 003°43'0 0.0
2018-Jul-07 07:59N 51°27' E 003°43'0 0.0
2018-Jul-07 07:29N 51°27' E 003°43'0 0.0
2018-Jul-07 06:59N 51°27' E 003°43'0 0.0
2018-Jul-07 06:14N 51°27' E 003°43'0 0.0
2018-Jul-07 05:59N 51°27' E 003°43'0 0.0
2018-Jul-07 05:29N 51°27' E 003°43'0 0.0
2018-Jul-07 04:59N 51°27' E 003°43'0 0.0
2018-Jul-07 04:29N 51°27' E 003°43'0 0.0
2018-Jul-07 03:59N 51°27' E 003°43'0 0.0
2018-Jul-07 03:29N 51°27' E 003°43'0 0.0
2018-Jul-07 02:59N 51°27' E 003°43'0 0.0
2018-Jul-07 02:29N 51°27' E 003°43'0 0.0
2018-Jul-07 01:53N 51°27' E 003°43'0 0.0
2018-Jul-07 01:30N 51°27' E 003°43'0 0.0
2018-Jul-07 00:59N 51°27' E 003°43'0 0.0
2018-Jul-07 00:29N 51°27' E 003°43'0 0.0
2018-Jul-06 23:50N 51°27' E 003°43'0 0.0
2018-Jul-06 23:29N 51°27' E 003°43'0 0.0
2018-Jul-06 22:59N 51°27' E 003°43'0 0.0
2018-Jul-06 22:26N 51°27' E 003°43'0 0.0
2018-Jul-06 21:59N 51°27' E 003°43'0 0.7
2018-Jul-06 21:30N 51°27' E 003°43'2 3.4
2018-Jul-06 21:00N 51°27' E 003°40'611.2
2018-Jul-06 20:30N 51°25' E 003°31'713.5
2018-Jul-06 20:00N 51°24' E 003°20'714.0
2018-Jul-06 19:30N 51°24' E 003°10'713.5
2018-Jul-06 19:00N 51°23' E 002°59'714.6
2018-Jul-06 18:31N 51°22' E 002°47'713.5
2018-Jul-06 18:00N 51°22' E 002°37'5 9.8
2018-Jul-06 17:30N 51°22' E 002°29'5 9.5
2018-Jul-06 17:00N 51°20' E 002°22'5 9.5
2018-Jul-06 16:30N 51°17' E 002°15'510.6
2018-Jul-06 16:00N 51°14' E 002°08'611.5
2018-Jul-06 15:28N 51°11' E 001°59'511.1
2018-Jul-06 15:00N 51°09' E 001°52'510.8
2018-Jul-06 14:30N 51°06' E 001°45'510.1
2018-Jul-06 14:00N 51°03' E 001°38'5 9.6
2018-Jul-06 13:30N 51°00' E 001°32'5 9.8
2018-Jul-06 13:00N 50°56' E 001°29'4 9.0
2018-Jul-06 12:30N 50°51' E 001°27'5 9.2
2018-Jul-06 12:00N 50°47' E 001°24'7 9.6
2018-Jul-06 11:19N 50°41' E 001°21'3 9.8
2018-Jul-06 10:59N 50°39' E 001°17'510.1
2018-Jul-06 10:30N 50°35' E 001°11'710.3
2018-Jul-06 09:50N 50°31' E 001°04'2210.0
2018-Jul-06 07:35N 50°23' E 000°30'111.1
2018-Jul-06 07:29N 50°23' E 000°29'612.1
2018-Jul-06 06:59N 50°21' E 000°20'713.0
2018-Jul-06 06:27N 50°20' E 000°09'613.1
2018-Jul-06 06:00N 50°18' W 000°00'713.2
2018-Jul-06 05:30N 50°16' W 000°10'713.3
2018-Jul-06 05:00N 50°15' W 000°20'713.4
2018-Jul-06 04:30N 50°13' W 000°30'713.8
2018-Jul-06 04:00N 50°12' W 000°41'714.2
2018-Jul-06 03:30N 50°10' W 000°51'2516.0
2018-Jul-06 01:55N 50°04' W 001°30'716.9
2018-Jul-06 01:30N 50°02' W 001°40'1917.3
2018-Jul-06 00:25N 49°57' W 002°09'716.7
2018-Jul-06 00:00N 49°55' W 002°19'1016.3
2018-Jul-05 23:23N 49°52' W 002°34'615.8
2018-Jul-05 23:00N 49°51' W 002°43'815.5
2018-Jul-05 22:30N 49°48' W 002°55'815.4
2018-Jul-05 21:59N 49°44' W 003°05'1415.2
2018-Jul-05 21:03N 49°36' W 003°24'7614.9
2018-Jul-05 15:56N 48°58' W 005°04'  
Track history (hours):
 
Tides and Currents Weather Stations Pressure Air Temp Water Temp Dewpoint Dewpoint Depression Visibility Wind Speed Wind Dir Waves Ship Positions

Florijngracht

Last reported at 2018-Jul-15 15:16 UTC. Time now 2018-Jul-16 14:41 UTC.
Position N 55°39' E 021°10'.

Length 137 m; draft 5.7 m.

Type: Cargo ship. MMSI: 246592000.

Date/timePositionNaut miles runAvg speedWind from/ knotsBaromVisibWave heightAir tempDewpointWater temp
2018-Jul-15 15:16N 55°39' E 021°10'0 0.0
2018-Jul-14 13:25N 55°39' E 021°10'80 2.9
2018-Jul-13 09:34N 55°15' E 018°55'113.3
2018-Jul-13 09:29N 55°15' E 018°53'713.4
2018-Jul-13 08:59N 55°12' E 018°42'613.5
2018-Jul-13 08:30N 55°10' E 018°31'713.5
2018-Jul-13 07:59N 55°07' E 018°20'613.5
2018-Jul-13 07:30N 55°04' E 018°10'713.4
2018-Jul-13 07:00N 55°02' E 017°59'8013.5
2018-Jul-13 01:05N 54°43' E 015°44'113.7
2018-Jul-13 00:59N 54°42' E 015°42'1713.6
2018-Jul-12 23:43N 54°40' E 015°12'1413.7
2018-Jul-12 22:42N 54°38' E 014°49'313.7
2018-Jul-12 22:29N 54°37' E 014°44'713.6
2018-Jul-12 21:59N 54°36' E 014°32'713.3
2018-Jul-12 21:25N 54°36' E 014°19'613.7
2018-Jul-12 20:58N 54°38' E 014°09'713.6
2018-Jul-12 20:26N 54°40' E 013°57'5415.8
2018-Jul-12 17:03N 54°38' E 012°24'110.3
2018-Jul-12 16:58N 54°37' E 012°23'15 6.9
2018-Jul-12 14:46N 54°25' E 012°08'413.4
2018-Jul-12 14:30N 54°25' E 012°02'813.0
2018-Jul-12 13:54N 54°25' E 011°49'512.8
2018-Jul-12 13:30N 54°27' E 011°40'713.2
2018-Jul-12 13:00N 54°29' E 011°30'713.2
2018-Jul-12 12:30N 54°32' E 011°20'713.5
2018-Jul-12 12:00N 54°35' E 011°10'713.0
2018-Jul-12 11:30N 54°39' E 011°00'612.0
2018-Jul-12 11:00N 54°43' E 010°52'612.5
2018-Jul-12 10:30N 54°49' E 010°52'611.8
2018-Jul-12 10:00N 54°55' E 010°53'611.9
2018-Jul-12 09:30N 54°59' E 011°00'612.7
2018-Jul-12 09:00N 55°05' E 011°02'612.5
2018-Jul-12 08:30N 55°11' E 011°05'5 9.0
2018-Jul-12 08:00N 55°16' E 011°04'611.3
2018-Jul-12 07:30N 55°21' E 011°02'4 8.0
2018-Jul-12 07:00N 55°25' E 010°58'713.4
2018-Jul-12 06:30N 55°31' E 010°52'612.6
2018-Jul-12 06:00N 55°36' E 010°48'612.7
2018-Jul-12 05:31N 55°43' E 010°47'612.8
2018-Jul-12 05:00N 55°49' E 010°48'712.9
2018-Jul-12 04:30N 55°54' E 010°55'913.1
2018-Jul-12 03:51N 56°01' E 011°04'412.9
2018-Jul-12 03:30N 56°05' E 011°07'612.4
2018-Jul-12 03:00N 56°10' E 011°15'913.3
2018-Jul-12 02:18N 56°18' E 011°23'413.4
2018-Jul-12 02:00N 56°22' E 011°26'612.7
2018-Jul-12 01:30N 56°27' E 011°31'713.0
2018-Jul-12 01:00N 56°33' E 011°38'613.2
2018-Jul-12 00:31N 56°38' E 011°44'713.2
2018-Jul-12 00:00N 56°44' E 011°50'612.2
2018-Jul-11 23:30N 56°50' E 011°49'612.7
2018-Jul-11 23:00N 56°56' E 011°45'612.7
2018-Jul-11 22:30N 57°02' E 011°41'612.7
2018-Jul-11 22:01N 57°07' E 011°36'612.7
2018-Jul-11 21:30N 57°13' E 011°32'713.0
2018-Jul-11 21:00N 57°20' E 011°28'713.3
2018-Jul-11 20:30N 57°26' E 011°24'612.7
2018-Jul-11 20:00N 57°31' E 011°18'612.7
2018-Jul-11 19:30N 57°35' E 011°09'612.9
2018-Jul-11 19:00N 57°40' E 010°60'612.8
2018-Jul-11 18:30N 57°44' E 010°51'612.1
2018-Jul-11 18:01N 57°47' E 010°41'713.5
2018-Jul-11 17:30N 57°47' E 010°28'713.5
2018-Jul-11 17:00N 57°46' E 010°16'713.7
2018-Jul-11 16:31N 57°45' E 010°03'713.9
2018-Jul-11 16:00N 57°45' E 009°50'713.7
2018-Jul-11 15:31N 57°44' E 009°37'713.0
2018-Jul-11 15:00N 57°42' E 009°25'28912.8
2018-Jul-10 16:29N 53°37' E 004°51'1212.8
2018-Jul-10 15:35N 53°27' E 004°45'1312.9
2018-Jul-10 14:33N 53°14' E 004°36'112.9
2018-Jul-10 14:28N 53°13' E 004°35'612.9
2018-Jul-10 14:00N 53°08' E 004°30'612.0
2018-Jul-10 13:30N 53°03' E 004°25'611.6
2018-Jul-10 13:00N 52°58' E 004°20'611.8
2018-Jul-10 12:30N 52°53' E 004°17'1111.4
2018-Jul-10 11:31N 52°43' E 004°06'010.4
2018-Jul-10 11:29N 52°43' E 004°06'611.2
2018-Jul-10 10:55N 52°37' E 004°01'511.4
2018-Jul-10 10:30N 52°33' E 003°57'611.2
2018-Jul-10 10:00N 52°28' E 003°55'510.8
2018-Jul-10 09:30N 52°23' E 003°53'510.7
2018-Jul-10 09:01N 52°17' E 003°52'611.1
2018-Jul-10 08:30N 52°12' E 003°54'611.2
2018-Jul-10 08:00N 52°06' E 003°55'4 7.8
2018-Jul-10 07:31N 52°02' E 003°54'612.4
2018-Jul-10 07:00N 51°59' E 004°03'713.9
2018-Jul-10 06:30N 51°56' E 004°13'510.9
2018-Jul-10 06:00N 51°54' E 004°21'3 6.5
2018-Jul-10 05:30N 51°54' E 004°27'1 1.0
2018-Jul-10 05:00N 51°54' E 004°27'0 0.0
2018-Jul-10 04:30N 51°54' E 004°27'0 0.0
2018-Jul-10 04:00N 51°54' E 004°27'0 0.0
2018-Jul-10 03:30N 51°54' E 004°27'0 0.0
2018-Jul-10 03:00N 51°54' E 004°27'0 0.0
2018-Jul-10 02:30N 51°54' E 004°27'0 0.0
2018-Jul-10 02:00N 51°54' E 004°27'0 0.0
2018-Jul-10 01:30N 51°54' E 004°27'0 0.0
2018-Jul-10 01:00N 51°54' E 004°27'0 0.0
2018-Jul-10 00:30N 51°54' E 004°27'0 0.0
2018-Jul-10 00:00N 51°54' E 004°27'0 0.0
2018-Jul-09 23:30N 51°54' E 004°27'0 0.0
2018-Jul-09 23:00N 51°54' E 004°27'0 0.0
2018-Jul-09 22:30N 51°54' E 004°27'0 0.0
2018-Jul-09 22:00N 51°54' E 004°27'0 0.0
2018-Jul-09 21:30N 51°54' E 004°27'0 0.0
2018-Jul-09 21:00N 51°54' E 004°27'0 0.0
2018-Jul-09 20:30N 51°54' E 004°27'0 0.0
2018-Jul-09 20:00N 51°54' E 004°27'0 0.0
2018-Jul-09 19:30N 51°54' E 004°27'0 0.0
2018-Jul-09 19:00N 51°54' E 004°27'0 0.0
2018-Jul-09 18:30N 51°54' E 004°27'0 0.0
2018-Jul-09 18:00N 51°54' E 004°27'0 0.0
2018-Jul-09 17:30N 51°54' E 004°27'0 0.0
2018-Jul-09 17:00N 51°54' E 004°27'0 0.0
2018-Jul-09 16:30N 51°54' E 004°27'0 0.0
2018-Jul-09 16:00N 51°54' E 004°27'0 0.0
2018-Jul-09 15:30N 51°54' E 004°27'0 0.0
2018-Jul-09 15:00N 51°54' E 004°27'0 0.0
2018-Jul-09 14:30N 51°54' E 004°27'0 0.0
2018-Jul-09 14:00N 51°54' E 004°27'0 0.0
2018-Jul-09 13:30N 51°54' E 004°27'0 0.0
2018-Jul-09 13:00N 51°54' E 004°27'0 0.0
2018-Jul-09 12:30N 51°54' E 004°27'0 0.0
2018-Jul-09 12:00N 51°54' E 004°27'0 0.0
2018-Jul-09 11:30N 51°54' E 004°27'0 0.0
2018-Jul-09 11:00N 51°54' E 004°27'0 0.0
2018-Jul-09 10:30N 51°54' E 004°27'0 0.0
2018-Jul-09 10:00N 51°54' E 004°27'0 0.0
2018-Jul-09 09:30N 51°54' E 004°27'0 0.0
2018-Jul-09 09:00N 51°54' E 004°27'0 0.0
2018-Jul-09 08:30N 51°54' E 004°27'0 0.0
2018-Jul-09 08:00N 51°54' E 004°27'0 0.0
2018-Jul-09 07:30N 51°54' E 004°27'0 0.0
2018-Jul-09 07:00N 51°54' E 004°27'0 0.0
2018-Jul-09 06:30N 51°54' E 004°27'0 0.0
2018-Jul-09 06:00N 51°54' E 004°27'0 0.0
2018-Jul-09 05:30N 51°54' E 004°27'0 0.0
2018-Jul-09 05:00N 51°54' E 004°27'0 0.0
2018-Jul-09 04:30N 51°54' E 004°27'0 0.0
2018-Jul-09 04:00N 51°54' E 004°27'0 0.0
2018-Jul-09 03:30N 51°54' E 004°27'0 0.0
2018-Jul-09 03:00N 51°54' E 004°27'0 0.0
2018-Jul-09 02:30N 51°54' E 004°27'0 0.0
2018-Jul-09 02:00N 51°54' E 004°27'0 0.0
2018-Jul-09 01:30N 51°54' E 004°27'0 0.0
2018-Jul-09 01:00N 51°54' E 004°27'0 0.0
2018-Jul-09 00:30N 51°54' E 004°27'0 0.0
2018-Jul-09 00:00N 51°54' E 004°27'0 0.0
2018-Jul-08 23:30N 51°54' E 004°27'0 0.0
2018-Jul-08 23:00N 51°54' E 004°27'0 0.0
2018-Jul-08 22:30N 51°54' E 004°27'0 0.0
2018-Jul-08 22:00N 51°54' E 004°27'0 0.0
2018-Jul-08 21:30N 51°54' E 004°27'0 0.0
2018-Jul-08 21:00N 51°54' E 004°27'0 0.0
2018-Jul-08 20:30N 51°54' E 004°27'0 0.0
2018-Jul-08 20:00N 51°54' E 004°27'0 0.0
2018-Jul-08 19:30N 51°54' E 004°27'0 0.3
2018-Jul-08 19:00N 51°54' E 004°27'1 2.1
2018-Jul-08 18:30N 51°54' E 004°26'4 7.5
2018-Jul-08 18:01N 51°54' E 004°20'511.0
2018-Jul-08 17:31N 51°56' E 004°12'612.0
2018-Jul-08 17:01N 51°59' E 004°03'612.0
2018-Jul-08 16:30N 51°60' E 003°54'510.8
2018-Jul-08 16:00N 51°60' E 003°45'612.1
2018-Jul-08 15:30N 51°57' E 003°36'612.3
2018-Jul-08 15:01N 51°56' E 003°26'612.0
2018-Jul-08 14:30N 51°51' E 003°20'612.6
2018-Jul-08 14:00N 51°45' E 003°16'510.4
2018-Jul-08 13:30N 51°40' E 003°19'713.7
2018-Jul-08 13:00N 51°34' E 003°24'713.8
2018-Jul-08 12:30N 51°29' E 003°30'510.9
2018-Jul-08 12:00N 51°26' E 003°38'3 6.2
2018-Jul-08 11:30N 51°27' E 003°43'0 0.0
2018-Jul-08 11:00N 51°27' E 003°43'0 0.0
2018-Jul-08 10:30N 51°27' E 003°43'0 0.0
2018-Jul-08 10:00N 51°27' E 003°43'0 0.0
2018-Jul-08 09:30N 51°27' E 003°43'0 0.0
2018-Jul-08 09:00N 51°27' E 003°43'0 0.0
2018-Jul-08 08:27N 51°27' E 003°43'0 0.0
2018-Jul-08 08:00N 51°27' E 003°43'0 0.0
2018-Jul-08 07:30N 51°27' E 003°43'0 0.0
2018-Jul-08 07:00N 51°27' E 003°43'0 0.0
2018-Jul-08 06:30N 51°27' E 003°43'0 0.0
2018-Jul-08 06:00N 51°27' E 003°43'0 0.0
2018-Jul-08 05:29N 51°27' E 003°43'0 0.0
2018-Jul-08 05:00N 51°27' E 003°43'0 0.0
2018-Jul-08 04:23N 51°27' E 003°43'0 0.0
2018-Jul-08 03:59N 51°27' E 003°43'0 0.0
2018-Jul-08 03:29N 51°27' E 003°43'0 0.0
2018-Jul-08 02:59N 51°27' E 003°43'0 0.0
2018-Jul-08 02:29N 51°27' E 003°43'0 0.0
2018-Jul-08 02:00N 51°27' E 003°43'0 0.0
2018-Jul-08 01:30N 51°27' E 003°43'0 0.0
2018-Jul-08 00:59N 51°27' E 003°43'0 0.0
2018-Jul-08 00:29N 51°27' E 003°43'0 0.0
2018-Jul-07 23:59N 51°27' E 003°43'0 0.0
2018-Jul-07 23:26N 51°27' E 003°43'0 0.0
2018-Jul-07 22:59N 51°27' E 003°43'0 0.0
2018-Jul-07 22:29N 51°27' E 003°43'0 0.0
2018-Jul-07 21:51N 51°27' E 003°43'0 0.0
2018-Jul-07 21:29N 51°27' E 003°43'0 0.0
2018-Jul-07 20:59N 51°27' E 003°43'0 0.0
2018-Jul-07 20:27N 51°27' E 003°43'0 0.0
2018-Jul-07 19:59N 51°27' E 003°43'0 0.0
2018-Jul-07 19:23N 51°27' E 003°43'0 0.0
2018-Jul-07 18:59N 51°27' E 003°43'0 0.0
2018-Jul-07 18:29N 51°27' E 003°43'0 0.0
2018-Jul-07 17:59N 51°27' E 003°43'0 0.0
2018-Jul-07 17:29N 51°27' E 003°43'0 0.0
2018-Jul-07 16:59N 51°27' E 003°43'0 0.0
2018-Jul-07 16:29N 51°27' E 003°43'0 0.0
2018-Jul-07 15:59N 51°27' E 003°43'0 0.0
2018-Jul-07 15:29N 51°27' E 003°43'0 0.0
2018-Jul-07 14:59N 51°27' E 003°43'0 0.0
2018-Jul-07 14:29N 51°27' E 003°43'0 0.0
2018-Jul-07 13:59N 51°27' E 003°43'0 0.0
2018-Jul-07 13:29N 51°27' E 003°43'0 0.0
2018-Jul-07 12:59N 51°27' E 003°43'0 0.0
2018-Jul-07 12:29N 51°27' E 003°43'0 0.0
2018-Jul-07 11:56N 51°27' E 003°43'0 0.0
2018-Jul-07 11:29N 51°27' E 003°43'0 0.0
2018-Jul-07 10:59N 51°27' E 003°43'0 0.0
2018-Jul-07 10:29N 51°27' E 003°43'0 0.0
2018-Jul-07 09:59N 51°27' E 003°43'0 0.0
2018-Jul-07 09:29N 51°27' E 003°43'0 0.0
2018-Jul-07 08:59N 51°27' E 003°43'0 0.0
2018-Jul-07 08:29N 51°27' E 003°43'0 0.0
2018-Jul-07 07:59N 51°27' E 003°43'0 0.0
2018-Jul-07 07:29N 51°27' E 003°43'0 0.0
2018-Jul-07 06:59N 51°27' E 003°43'0 0.0
2018-Jul-07 06:14N 51°27' E 003°43'0 0.0
2018-Jul-07 05:59N 51°27' E 003°43'0 0.0
2018-Jul-07 05:29N 51°27' E 003°43'0 0.0
2018-Jul-07 04:59N 51°27' E 003°43'0 0.0
2018-Jul-07 04:29N 51°27' E 003°43'0 0.0
2018-Jul-07 03:59N 51°27' E 003°43'0 0.0
2018-Jul-07 03:29N 51°27' E 003°43'0 0.0
2018-Jul-07 02:59N 51°27' E 003°43'0 0.0
2018-Jul-07 02:29N 51°27' E 003°43'0 0.0
2018-Jul-07 01:53N 51°27' E 003°43'0 0.0
2018-Jul-07 01:30N 51°27' E 003°43'0 0.0
2018-Jul-07 00:59N 51°27' E 003°43'0 0.0
2018-Jul-07 00:29N 51°27' E 003°43'0 0.0
2018-Jul-06 23:50N 51°27' E 003°43'0 0.0
2018-Jul-06 23:29N 51°27' E 003°43'0 0.0
2018-Jul-06 22:59N 51°27' E 003°43'0 0.0
2018-Jul-06 22:26N 51°27' E 003°43'0 0.0
2018-Jul-06 21:59N 51°27' E 003°43'0 0.7
2018-Jul-06 21:30N 51°27' E 003°43'2 3.4
2018-Jul-06 21:00N 51°27' E 003°40'611.2
2018-Jul-06 20:30N 51°25' E 003°31'713.5
2018-Jul-06 20:00N 51°24' E 003°20'714.0
2018-Jul-06 19:30N 51°24' E 003°10'713.5
2018-Jul-06 19:00N 51°23' E 002°59'714.6
2018-Jul-06 18:31N 51°22' E 002°47'713.5
2018-Jul-06 18:00N 51°22' E 002°37'5 9.8
2018-Jul-06 17:30N 51°22' E 002°29'5 9.5
2018-Jul-06 17:00N 51°20' E 002°22'5 9.5
2018-Jul-06 16:30N 51°17' E 002°15'510.6
2018-Jul-06 16:00N 51°14' E 002°08'611.5
2018-Jul-06 15:28N 51°11' E 001°59'511.1
2018-Jul-06 15:00N 51°09' E 001°52'510.8
2018-Jul-06 14:30N 51°06' E 001°45'510.1
2018-Jul-06 14:00N 51°03' E 001°38'5 9.6
2018-Jul-06 13:30N 51°00' E 001°32'5 9.8
2018-Jul-06 13:00N 50°56' E 001°29'4 9.0
2018-Jul-06 12:30N 50°51' E 001°27'5 9.2
2018-Jul-06 12:00N 50°47' E 001°24'7 9.6
2018-Jul-06 11:19N 50°41' E 001°21'3 9.8
2018-Jul-06 10:59N 50°39' E 001°17'510.1
2018-Jul-06 10:30N 50°35' E 001°11'710.3
2018-Jul-06 09:50N 50°31' E 001°04'2210.0
2018-Jul-06 07:35N 50°23' E 000°30'111.1
2018-Jul-06 07:29N 50°23' E 000°29'612.1
2018-Jul-06 06:59N 50°21' E 000°20'713.0
2018-Jul-06 06:27N 50°20' E 000°09'613.1
2018-Jul-06 06:00N 50°18' W 000°00'713.2
2018-Jul-06 05:30N 50°16' W 000°10'713.3
2018-Jul-06 05:00N 50°15' W 000°20'713.4
2018-Jul-06 04:30N 50°13' W 000°30'713.8
2018-Jul-06 04:00N 50°12' W 000°41'714.2
2018-Jul-06 03:30N 50°10' W 000°51'2516.0
2018-Jul-06 01:55N 50°04' W 001°30'716.9
2018-Jul-06 01:30N 50°02' W 001°40'1917.3
2018-Jul-06 00:25N 49°57' W 002°09'716.7
2018-Jul-06 00:00N 49°55' W 002°19'1016.3
2018-Jul-05 23:23N 49°52' W 002°34'615.8
2018-Jul-05 23:00N 49°51' W 002°43'815.5
2018-Jul-05 22:30N 49°48' W 002°55'815.4
2018-Jul-05 21:59N 49°44' W 003°05'1415.2
2018-Jul-05 21:03N 49°36' W 003°24'7614.9
2018-Jul-05 15:56N 48°58' W 005°04'  

Dump ship's entire track history